Flight Track Log - Related Links

Times and Time Zones

All times are in EDT time to prevent confusion due to time zone crossing. See the CLX659 flight status page for this flight to view local times or setup timezone preferences in your user account.

Time Position Orientation Groundspeed Altitude Reporting Facility
EDT Latitude Longitude Course Direction KTS MPH feet Rate Location/Type
Sun 11:08:47 PM 41.9760 -87.9170 90° East 96 110  Level FlightAware ADS-B
Sun 11:09:01 PM 41.9820 -87.9240 319° Northwest 136 157 600 2,217 Climbing FlightAware ADS-B
Sun 11:09:33 PM 42.0010 -87.9440 322° Northwest 159 183 1,700 2,045 Climbing FlightAware ADS-B
Sun 11:09:45 PM 42.0090 -87.9520 323° Northwest 163 188 2,100 1,950 Climbing FlightAware ADS-B
Sun 11:10:13 PM 42.0260 -87.9680 325° Northwest 167 192 3,000 2,093 Climbing FlightAware ADS-B
Sun 11:10:28 PM 42.0350 -87.9770 323° Northwest 168 193 3,600 1,950 Climbing FlightAware ADS-B
Sun 11:10:53 PM 42.0520 -87.9940 323° Northwest 183 211 4,300 1,071 Climbing FlightAware ADS-B
Sun 11:11:24 PM 42.0750 -88.0160 325° Northwest 227 261 4,600 837 Climbing FlightAware ADS-B
Sun 11:11:36 PM 42.0880 -88.0210 344° North 243 280 4,900 1,286 Climbing FlightAware ADS-B
Sun 11:11:52 PM 42.1060 -88.0250 351° North 257 296 5,200 1,814 Climbing FlightAware ADS-B
Sun 11:12:19 PM 42.1410 -88.0330 350° North 279 321 6,200 2,341 Climbing FlightAware ADS-B
Sun 11:12:33 PM 42.1590 -88.0360 353° North 279 321 6,800 2,595 Climbing FlightAware ADS-B
Sun 11:12:56 PM 42.1880 -88.0390 356° North 286 329 7,800 2,667 Climbing FlightAware ADS-B
Sun 11:13:27 PM 42.2310 -88.0400 359° North 295 339 9,200 2,345 Climbing FlightAware ADS-B
Sun 11:14:23 PM 42.3070 -88.0390 North 316 364 11,200 1,714 Climbing FlightAware ADS-B
Sun 11:14:51 PM 42.3530 -88.0390 360° North 351 404 11,600 1,250 Climbing FlightAware ADS-B
Sun 11:15:35 PM 42.4260 -88.0380 North 383 441 12,700 2,127 Climbing FlightAware ADS-B
Sun 11:16:10 PM 42.4860 -88.0380 360° North 386 444 14,400 2,632 Climbing FlightAware ADS-B
Sun 11:16:32 PM 42.5280 -88.0290 North 404 465 15,200 2,571 Climbing FlightAware ADS-B
Sun 11:17:13 PM 42.5950 -87.9720 32° Northeast 424 488 17,100 2,727 Climbing FlightAware ADS-B
Sun 11:17:49 PM 42.6450 -87.9020 46° Northeast 430 495 18,700 2,447 Climbing FlightAware ADS-B
Sun 11:18:29 PM 42.6990 -87.8210 48° Northeast 438 504 20,200 2,000 Climbing FlightAware ADS-B
Sun 11:19:13 PM 42.7600 -87.7310 47° Northeast 452 520 21,500 1,674 Climbing FlightAware ADS-B
Sun 11:19:55 PM 42.8160 -87.6380 51° Northeast 475 547 22,600 1,683 Climbing FlightAware ADS-B
Sun 11:20:35 PM 42.8400 -87.5190 75° East 499 574 23,800 1,683 Climbing FlightAware ADS-B
Sun 11:21:17 PM 42.8540 -87.3860 82° East 508 585 24,900 1,535 Climbing FlightAware ADS-B
Sun 11:22:01 PM 42.8690 -87.2490 81° East 516 594 26,000 1,537 Climbing FlightAware ADS-B
Sun 11:22:39 PM 42.8810 -87.1280 82° East 521 600 27,000 1,643 Climbing FlightAware ADS-B
Sun 11:23:25 PM 42.8970 -86.9750 82° East 524 603 28,300 1,953 Climbing FlightAware ADS-B
Sun 11:24:05 PM 42.9100 -86.8480 82° East 515 593 29,800 2,000 Climbing FlightAware ADS-B
Sun 11:24:49 PM 42.9250 -86.7040 82° East 513 590 31,100 1,714 Climbing FlightAware ADS-B
Sun 11:25:29 PM 42.9380 -86.5770 82° East 511 588 32,200 1,429 Climbing FlightAware ADS-B
Sun 11:26:13 PM 42.9520 -86.4350 82° East 514 592 33,100 1,050 Climbing FlightAware ADS-B
Sun 11:26:49 PM 42.9630 -86.3190 83° East 519 597 33,600 947 Climbing FlightAware ADS-B
Sun 11:27:29 PM 42.9760 -86.1900 82° East 521 600 34,300 929 Climbing FlightAware ADS-B
Sun 11:28:13 PM 42.9890 -86.0510 83° East 526 605 34,900 500 Climbing FlightAware ADS-B
Sun 11:28:53 PM 43.0020 -85.9140 83° East 523 602 35,000 71 Climbing FlightAware ADS-B
Sun 11:29:37 PM 43.0160 -85.7690 82° East 524 603 35,000  Level FlightAware ADS-B
Sun 11:30:17 PM 43.0270 -85.6390 83° East 523 602 35,000  Level FlightAware ADS-B
Sun 11:31:01 PM 43.0400 -85.4960 83° East 521 600 35,000  Level FlightAware ADS-B
Sun 11:31:37 PM 43.0510 -85.3790 83° East 519 597 35,000  Level FlightAware ADS-B
Sun 11:32:17 PM 43.0630 -85.2460 83° East 517 595 35,000  Level FlightAware ADS-B
Sun 11:32:58 PM 43.0740 -85.1190 83° East 516 594 35,000  Level FlightAware ADS-B
Sun 11:33:37 PM 43.0850 -84.9930 83° East 515 593 35,000  Level FlightAware ADS-B
Sun 11:34:07 PM 43.0930 -84.8930 84° East 516 594 35,000  Level FlightAware ADS-B
Sun 11:34:57 PM 43.1060 -84.7350 84° East 516 594 35,000  Level FlightAware ADS-B
Sun 11:35:37 PM 43.1170 -84.6050 83° East 519 597 35,000  Level FlightAware ADS-B
Sun 11:36:20 PM 43.1280 -84.4650 84° East 521 600 35,000  Level FlightAware ADS-B
Sun 11:37:04 PM 43.1400 -84.3160 84° East 524 603 35,000  Level FlightAware ADS-B
Sun 11:37:46 PM 43.1500 -84.1950 83° East 525 604 35,000  Level FlightAware ADS-B
Sun 11:38:26 PM 43.1620 -84.0450 84° East 528 608 35,000  Level FlightAware ADS-B
Sun 11:39:02 PM 43.1710 -83.9250 84° East 529 609 35,000  Level FlightAware ADS-B
Sun 11:39:42 PM 43.1810 -83.7940 84° East 530 610 35,000  Level FlightAware ADS-B
Sun 11:40:26 PM 43.1920 -83.6450 84° East 531 611 35,000  Level FlightAware ADS-B
Sun 11:41:00 PM 43.2000 -83.5300 85° East 531 611 35,000  Level FlightAware ADS-B
Sun 11:41:44 PM 43.2100 -83.3860 85° East 531 611 35,000  Level FlightAware ADS-B
Sun 11:42:24 PM 43.2200 -83.2500 84° East 531 611 35,000  Level FlightAware ADS-B
Sun 11:43:08 PM 43.2300 -83.1030 85° East 531 611 35,000  Level FlightAware ADS-B
Sun 11:43:48 PM 43.2390 -82.9720 85° East 531 611 35,000  Level FlightAware ADS-B
Sun 11:44:32 PM 43.2490 -82.8210 85° East 531 611 35,000  Level FlightAware ADS-B
Sun 11:45:12 PM 43.2660 -82.6930 80° East 526 605 35,000  Level FlightAware ADS-B
Sun 11:45:58 PM 43.3020 -82.5610 69° East 522 601 35,000  Level FlightAware ADS-B
Sun 11:46:44 PM 43.3410 -82.4310 68° East 524 603 35,000  Level FlightAware ADS-B
Sun 11:47:26 PM 43.3790 -82.3020 68° East 525 604 35,000  Level FlightAware ADS-B
Sun 11:47:59 PM 43.4090 -82.1970 68° East 526 605 35,000  Level FlightAware ADS-B
Sun 11:48:39 PM 43.4470 -82.0650 68° East 527 606 35,000  Level FlightAware ADS-B
Sun 11:49:22 PM 43.4850 -81.9360 68° East 527 606 35,000  Level FlightAware ADS-B
Sun 11:50:01 PM 43.5180 -81.8190 69° East 528 608 35,000  Level FlightAware ADS-B
Sun 11:50:47 PM 43.5590 -81.6760 68° East 528 608 35,000  Level FlightAware ADS-B
Sun 11:51:28 PM 43.5970 -81.5420 69° East 528 608 35,000  Level FlightAware ADS-B
Sun 11:52:12 PM 43.6380 -81.4000 68° East 527 606 35,000  Level FlightAware ADS-B
Sun 11:52:45 PM 43.6650 -81.3040 69° East 526 605 35,000  Level FlightAware ADS-B
Sun 11:53:22 PM 43.6960 -81.1910 69° East 525 604 35,000  Level FlightAware ADS-B
Sun 11:54:08 PM 43.7360 -81.0490 69° East 524 603 35,000  Level FlightAware ADS-B
Sun 11:54:55 PM 43.7790 -80.8930 69° East 524 603 35,000  Level FlightAware ADS-B
Sun 11:55:44 PM 43.8260 -80.7230 69° East 525 604 35,000  Level FlightAware ADS-B
Sun 11:56:21 PM 43.8520 -80.6280 69° East 525 604 35,000  Level FlightAware ADS-B
Sun 11:57:02 PM 43.8870 -80.5010 69° East 524 603 35,000  Level FlightAware ADS-B
Sun 11:57:45 PM 43.9280 -80.3490 69° East 524 603 35,000  Level FlightAware ADS-B
Sun 11:58:30 PM 43.9660 -80.2070 70° East 524 603 35,000  Level FlightAware ADS-B
Sun 11:59:10 PM 44.0010 -80.0780 69° East 525 604 35,000  Level FlightAware ADS-B
Sun 11:59:45 PM 44.0300 -79.9690 70° East 525 604 35,000  Level FlightAware ADS-B
Mon 12:00:30 AM 44.0650 -79.8350 70° East 526 605 35,000  Level FlightAware ADS-B
Mon 12:01:10 AM 44.1020 -79.6980 69° East 527 606 35,000  Level FlightAware ADS-B
Mon 12:01:45 AM 44.1370 -79.5910 65° Northeast 538 619 35,000  Level FlightAware ADS-B
Mon 12:02:39 AM 44.2000 -79.4450 59° Northeast 540 621 35,000  Level FlightAware ADS-B
Mon 12:03:24 AM 44.2610 -79.3050 59° Northeast 539 620 35,000  Level FlightAware ADS-B
Mon 12:04:04 AM 44.3130 -79.1870 58° Northeast 539 620 35,000  Level FlightAware ADS-B
Mon 12:04:49 AM 44.3720 -79.0520 59° Northeast 539 620 35,000  Level FlightAware ADS-B
Mon 12:05:29 AM 44.4220 -78.9350 59° Northeast 538 619 35,000  Level FlightAware ADS-B
Mon 12:06:14 AM 44.4790 -78.8030 59° Northeast 536 617 35,000  Level FlightAware ADS-B
Mon 12:06:44 AM 44.5180 -78.7120 59° Northeast 535 616 35,000  Level FlightAware ADS-B
Mon 12:07:29 AM 44.5760 -78.5770 59° Northeast 540 621 35,000  Level FlightAware ADS-B
Mon 12:08:09 AM 44.6270 -78.4570 59° Northeast 542 624 35,000  Level FlightAware ADS-B
Mon 12:08:44 AM 44.6730 -78.3500 59° Northeast 544 626 35,000  Level FlightAware ADS-B
Mon 12:09:29 AM 44.7300 -78.2160 59° Northeast 545 627 35,000  Level FlightAware ADS-B
Mon 12:10:09 AM 44.7820 -78.0910 60° Northeast 545 627 35,000  Level FlightAware ADS-B
Mon 12:10:54 AM 44.8390 -77.9560 59° Northeast 544 626 35,000  Level FlightAware ADS-B
Mon 12:11:34 AM 44.8910 -77.8320 59° Northeast 544 626 35,000  Level FlightAware ADS-B
Mon 12:12:14 AM 44.9410 -77.7110 60° Northeast 543 625 35,000  Level FlightAware ADS-B
Mon 12:12:59 AM 45.0040 -77.5800 56° Northeast 551 634 35,000  Level FlightAware ADS-B
Mon 12:13:34 AM 45.0560 -77.4880 51° Northeast 553 636 35,000  Level FlightAware ADS-B
Mon 12:14:14 AM 45.1220 -77.3700 52° Northeast 555 639 35,000  Level FlightAware ADS-B
Mon 12:14:54 AM 45.1870 -77.2530 52° Northeast 555 639 35,000  Level FlightAware ADS-B
Mon 12:15:34 AM 45.2500 -77.1390 52° Northeast 552 635 35,000  Level FlightAware ADS-B
Mon 12:16:14 AM 45.3130 -77.0250 52° Northeast 552 635 35,000  Level FlightAware ADS-B
Mon 12:16:59 AM 45.3830 -76.8980 52° Northeast 553 636 35,000  Level FlightAware ADS-B
Mon 12:17:39 AM 45.4460 -76.7830 52° Northeast 553 636 35,000  Level FlightAware ADS-B
Mon 12:18:19 AM 45.5060 -76.6720 52° Northeast 555 639 35,000  Level FlightAware ADS-B
Mon 12:18:59 AM 45.5700 -76.5540 52° Northeast 556 640 35,000  Level FlightAware ADS-B
Mon 12:19:44 AM 45.6430 -76.4200 52° Northeast 559 643 35,000  Level FlightAware ADS-B
Mon 12:19:54 AM 45.6520 -76.4030 53° Northeast 559 643 35,000  Level FlightAware ADS-B
Mon 12:20:57 AM 45.7610 -76.2010 52° Northeast 559 643 35,000  Level FlightAware ADS-B
Mon 12:21:43 AM 45.8310 -76.0700 52° Northeast 561 646 35,000  Level FlightAware ADS-B
Mon 12:22:23 AM 45.8980 -75.9430 53° Northeast 566 651 35,000  Level FlightAware ADS-B
Mon 12:22:53 AM 45.9450 -75.8550 52° Northeast 566 651 35,000  Level FlightAware ADS-B
Mon 12:24:13 AM 46.0710 -75.6150 53° Northeast 565 650 35,000  Level FlightAware ADS-B
Mon 12:24:58 AM 46.1430 -75.4780 53° Northeast 567 652 35,000  Level FlightAware ADS-B
Mon 12:25:33 AM 46.1980 -75.3720 53° Northeast 569 655 35,000  Level FlightAware ADS-B
Mon 12:26:18 AM 46.2690 -75.2350 53° Northeast 568 654 35,000  Level FlightAware ADS-B
Mon 12:26:58 AM 46.3310 -75.1140 53° Northeast 568 654 35,000  Level FlightAware ADS-B
Mon 12:27:42 AM 46.4030 -74.9750 53° Northeast 567 652 35,000  Level FlightAware ADS-B
Mon 12:28:23 AM 46.4650 -74.8530 54° Northeast 567 652 35,000  Level FlightAware ADS-B
Mon 12:28:58 AM 46.5200 -74.7460 53° Northeast 567 652 35,000  Level FlightAware ADS-B
Mon 12:29:44 AM 46.5910 -74.6050 54° Northeast 566 651 35,000  Level FlightAware ADS-B
Mon 12:30:23 AM 46.6510 -74.4860 54° Northeast 559 643 35,000  Level FlightAware ADS-B
Mon 12:30:58 AM 46.7040 -74.3800 54° Northeast 556 640 35,000  Level FlightAware ADS-B
Mon 12:31:38 AM 46.7660 -74.2570 54° Northeast 553 636 35,000  Level FlightAware ADS-B
Mon 12:32:09 AM 46.8110 -74.1660 54° Northeast 556 640 35,000  Level FlightAware ADS-B
Mon 12:32:44 AM 46.8640 -74.0590 54° Northeast 555 639 35,000  Level FlightAware ADS-B
Mon 12:33:29 AM 46.9310 -73.9240 54° Northeast 553 636 35,000  Level FlightAware ADS-B
Mon 12:34:09 AM 46.9910 -73.8020 54° Northeast 553 636 35,000  Level FlightAware ADS-B
Mon 12:34:53 AM 47.0590 -73.6640 54° Northeast 555 639 35,000  Level FlightAware ADS-B
Mon 12:35:33 AM 47.1180 -73.5420 55° Northeast 556 640 35,000  Level FlightAware ADS-B
Mon 12:36:14 AM 47.1780 -73.4200 54° Northeast 557 641 35,000  Level FlightAware ADS-B
Mon 12:36:54 AM 47.2370 -73.2970 55° Northeast 558 642 35,000  Level FlightAware ADS-B
Mon 12:37:34 AM 47.2980 -73.1710 54° Northeast 561 646 35,000  Level FlightAware ADS-B
Mon 12:38:14 AM 47.3570 -73.0470 55° Northeast 562 647 35,000  Level FlightAware ADS-B
Mon 12:38:54 AM 47.4130 -72.9300 55° Northeast 562 647 35,000  Level FlightAware ADS-B
Mon 12:39:55 AM 47.5040 -72.7370 55° Northeast 562 647 35,000  Level FlightAware ADS-B
Mon 12:41:13 AM 46.6530 -74.4790 235° Southwest 562 647 35,000  Level FlightAware ADS-B
Mon 12:42:09 AM 47.7000 -72.3200 54° Northeast 562 647 35,000  Level FlightAware ADS-B
Mon 12:42:52 AM 47.7650 -72.1780 56° Northeast 565 650 35,000  Level FlightAware ADS-B
Mon 12:43:44 AM 47.8430 -72.0110 55° Northeast 569 655 35,000  Level FlightAware ADS-B
Mon 12:44:34 AM 47.9160 -71.8500 56° Northeast 570 656 35,000  Level FlightAware ADS-B
Mon 12:45:47 AM 48.0280 -71.6050 56° Northeast 569 655 35,000  Level FlightAware ADS-B
Mon 12:47:02 AM 48.1380 -71.3610 56° Northeast 570 656 35,000  Level FlightAware ADS-B
Mon 12:47:42 AM 48.1930 -71.2380 56° Northeast 570 656 35,000  Level FlightAware ADS-B
Mon 12:48:22 AM 48.2540 -71.1030 56° Northeast 568 654 35,000  Level FlightAware ADS-B
Mon 12:48:59 AM 48.3100 -70.9770 56° Northeast 567 652 35,000  Level FlightAware ADS-B
Mon 12:49:54 AM 48.3890 -70.7970 56° Northeast 567 652 35,000  Level FlightAware ADS-B
Mon 12:50:34 AM 48.4470 -70.6650 56° Northeast 563 648 35,000  Level FlightAware ADS-B
Mon 12:51:21 AM 48.5000 -70.5450 56° Northeast 562 647 35,000  Level FlightAware ADS-B
Mon 12:52:01 AM 48.5000 -70.5460 270° West 558 642 35,000  Level FlightAware ADS-B
Mon 12:52:37 AM 48.5440 -70.4470 56° Northeast 558 642 35,000  Level FlightAware ADS-B
Mon 12:53:26 AM 48.5180 -70.5060 236° Southwest 558 642 35,000  Level FlightAware ADS-B
Mon 12:54:02 AM 48.5620 -70.4070 56° Northeast 558 642 35,000  Level FlightAware ADS-B
Mon 12:54:38 AM 48.6060 -70.3080 56° Northeast 558 642 35,000  Level FlightAware ADS-B
Mon 12:55:26 AM 48.6650 -70.1760 56° Northeast 558 642 35,000  Level FlightAware ADS-B
Mon 12:56:02 AM 48.7090 -70.0760 56° Northeast 558 642 35,000  Level FlightAware ADS-B
Mon 12:56:38 AM 48.7530 -69.9770 56° Northeast 558 642 35,000  Level FlightAware ADS-B
Mon 12:57:26 AM 48.8120 -69.8440 56° Northeast 558 642 35,000  Level FlightAware ADS-B
Mon 12:58:02 AM 48.8560 -69.7450 56° Northeast 558 642 35,000  Level FlightAware ADS-B
Mon 12:58:51 AM 48.9160 -69.6090 56° Northeast 558 642 35,000  Level FlightAware ADS-B
Mon 12:59:27 AM 48.9600 -69.5100 56° Northeast 558 642 35,000  Level FlightAware ADS-B
Mon 01:00:15 AM 49.0190 -69.3770 56° Northeast 558 642 35,000  Level FlightAware ADS-B
Mon 01:00:51 AM 49.0630 -69.2770 56° Northeast 558 642 35,000  Level FlightAware ADS-B
Mon 01:01:29 AM 49.1100 -69.1710 56° Northeast 558 642 35,000  Level FlightAware ADS-B
Mon 01:02:05 AM 49.1540 -69.0710 56° Northeast 558 642 35,000  Level FlightAware ADS-B
Mon 01:03:03 AM 49.4500 -68.2333 56° Northeast 550 633 35,000  Level Gander Center
Mon 01:04:03 AM 49.5333 -68.0333 57° Northeast 550 633 35,000  Level Gander Center
Mon 01:05:03 AM 49.6167 -67.8333 57° Northeast 550 633 35,000  Level Gander Center
Mon 01:06:03 AM 49.7000 -67.6500 55° Northeast 550 633 35,000  Level Gander Center
Mon 01:07:03 AM 49.7667 -67.4500 63° Northeast 550 633 35,000  Level Gander Center
Mon 01:08:03 AM 49.8500 -67.2167 61° Northeast 550 633 35,000  Level Gander Center
Mon 01:09:03 AM 49.9333 -67.0333 55° Northeast 550 633 35,000  Level Gander Center
Mon 01:10:03 AM 50.0000 -66.8333 63° Northeast 550 633 35,000  Level Gander Center
Mon 01:11:03 AM 50.0833 -66.6333 57° Northeast 550 633 35,000  Level Gander Center
Mon 01:12:03 AM 50.1500 -66.4000 66° East 560 644 35,000  Level Gander Center
Mon 01:13:03 AM 50.2333 -66.2000 57° Northeast 550 633 35,000  Level Gander Center
Mon 01:14:03 AM 50.3000 -66.0000 62° Northeast 540 621 35,000  Level Gander Center
Mon 01:15:03 AM 50.3833 -65.8000 57° Northeast 540 621 35,000  Level Gander Center
Mon 01:16:03 AM 50.4500 -65.5833 64° Northeast 540 621 35,000  Level Gander Center
Mon 01:17:03 AM 50.5333 -65.3833 57° Northeast 540 621 35,000  Level Gander Center
Mon 01:18:03 AM 50.6000 -65.1500 66° East 540 621 35,000  Level Gander Center
Mon 01:19:03 AM 50.6833 -64.9500 57° Northeast 550 633 35,000  Level Gander Center
Mon 01:20:03 AM 50.7500 -64.7500 62° Northeast 550 633 35,000  Level Gander Center
Mon 01:21:03 AM 50.8333 -64.5333 59° Northeast 550 633 35,000  Level Gander Center
Mon 01:22:03 AM 50.9000 -64.3333 62° Northeast 550 633 35,000  Level Gander Center
Mon 01:23:03 AM 50.9667 -64.1167 64° Northeast 540 621 35,000  Level Gander Center
Mon 01:24:03 AM 51.0500 -63.9167 56° Northeast 550 633 35,000  Level Gander Center
Mon 01:25:03 AM 51.1167 -63.6833 65° Northeast 540 621 35,000  Level Gander Center
Mon 01:26:03 AM 51.1833 -63.4667 64° Northeast 540 621 35,000  Level Gander Center
Mon 01:27:03 AM 51.2500 -63.2667 62° Northeast 540 621 35,000  Level Gander Center
Mon 01:28:03 AM 51.3333 -63.0500 58° Northeast 540 621 35,000  Level Gander Center
Mon 01:29:03 AM 51.4000 -62.8333 64° Northeast 530 610 35,000  Level Gander Center
Mon 01:30:03 AM 51.4667 -62.6167 64° Northeast 540 621 35,000  Level Gander Center
Mon 01:31:03 AM 51.5333 -62.4167 62° Northeast 530 610 35,000  Level Gander Center
Mon 01:32:03 AM 51.6000 -62.2000 64° Northeast 540 621 35,000  Level Gander Center
Mon 01:33:03 AM 51.6667 -61.9833 64° Northeast 530 610 35,000  Level Gander Center
Mon 01:34:03 AM 51.7333 -61.7667 64° Northeast 530 610 35,000  Level Gander Center
Mon 01:35:03 AM 51.7833 -61.5833 66° East 530 610 35,000  Level Gander Center
Mon 01:36:03 AM 51.8500 -61.3333 67° East 530 610 35,000  Level Gander Center
Mon 01:37:03 AM 51.9167 -61.1500 59° Northeast 530 610 35,000  Level Gander Center
Mon 01:38:03 AM 51.9833 -60.9000 67° East 530 610 35,000  Level Gander Center
Mon 01:39:03 AM 52.0500 -60.7167 59° Northeast 520 598 35,000  Level Gander Center
Mon 01:40:03 AM 52.1167 -60.5000 63° Northeast 520 598 35,000  Level Gander Center
Mon 01:41:03 AM 52.1833 -60.2667 65° Northeast 520 598 35,000  Level Gander Center
Mon 01:42:03 AM 52.2500 -60.0500 63° Northeast 520 598 35,000  Level Gander Center
Mon 01:43:03 AM 52.3000 -59.8333 69° East 520 598 35,000  Level Gander Center
Mon 01:44:03 AM 52.3667 -59.6167 63° Northeast 520 598 35,000  Level Gander Center
Mon 01:45:03 AM 52.4333 -59.4167 61° Northeast 520 598 35,000  Level Gander Center
Mon 01:46:03 AM 52.5000 -59.2000 63° Northeast 520 598 35,000  Level Gander Center
Mon 01:47:03 AM 52.5500 -58.9667 71° East 520 598 35,000  Level Gander Center
Mon 01:48:03 AM 52.6167 -58.7500 63° Northeast 520 598 35,000  Level Gander Center
Mon 01:49:03 AM 52.6833 -58.5500 61° Northeast 520 598 35,000  Level Gander Center
Mon 01:50:03 AM 52.7500 -58.3500 61° Northeast 510 587 35,000  Level Gander Center
Mon 01:51:03 AM 52.8167 -58.1333 63° Northeast 510 587 35,000  Level Gander Center
Mon 01:52:03 AM 52.8833 -57.9333 61° Northeast 510 587 35,000  Level Gander Center
Mon 01:53:03 AM 52.9667 -57.7333 55° Northeast 520 598 35,000  Level Gander Center
Mon 01:54:03 AM 53.0167 -57.5333 67° East 520 598 35,000  Level Gander Center
Mon 01:55:03 AM 53.1000 -57.3000 59° Northeast 520 598 35,000  Level Gander Center
Mon 01:56:03 AM 53.1667 -57.1000 61° Northeast 520 598 35,000  Level Gander Center
Mon 01:57:03 AM 53.2333 -56.9000 61° Northeast 520 598 35,000  Level Gander Center
Mon 01:58:03 AM 53.3167 -56.6833 57° Northeast 510 587 35,000  Level Gander Center
Mon 01:59:03 AM 53.3667 -56.4833 67° East 510 587 35,000  Level Gander Center
Mon 02:00:03 AM 53.4500 -56.2500 59° Northeast 510 587 35,000  Level Gander Center
Mon 02:01:03 AM 53.5000 -56.0500 67° East 510 587 35,000  Level Gander Center
Mon 02:02:03 AM 53.5833 -55.8500 55° Northeast 510 587 35,000  Level Gander Center
Mon 02:03:03 AM 53.6333 -55.6333 69° East 510 587 35,000  Level Gander Center
Mon 02:04:03 AM 53.7000 -55.4000 64° Northeast 510 587 35,000  Level Gander Center
Mon 02:05:03 AM 53.7833 -55.2000 55° Northeast 510 587 35,000  Level Gander Center
Mon 02:06:03 AM 53.8167 -54.9833 75° East 520 598 35,000  Level Gander Center
Mon 02:07:03 AM 53.8500 -54.7333 77° East 520 598 35,000  Level Gander Center
Mon 02:08:03 AM 53.8667 -54.5000 83° East 530 610 35,000  Level Gander Center
Mon 02:09:03 AM 53.8833 -54.2500 83° East 530 610 35,000  Level Gander Center
Mon 02:10:03 AM 53.8833 -54.0167 90° East 530 610 35,000  Level Gander Center
Mon 02:11:03 AM 53.8833 -53.7500 90° East 540 621 35,000  Level Gander Center
Mon 02:12:03 AM 53.9000 -53.4667 84° East 540 621 35,000  Level Gander Center
Mon 02:13:03 AM 53.9000 -53.2500 90° East 530 610 35,000  Level Gander Center
Mon 02:14:03 AM 53.9167 -52.9833 84° East 540 621 35,000  Level Gander Center
Mon 02:15:03 AM 53.9167 -52.7500 90° East 540 621 35,000  Level Gander Center
Mon 02:16:03 AM 53.9333 -52.5000 83° East 540 621 35,000  Level Gander Center
Mon 02:17:03 AM 53.9333 -52.2333 90° East 540 621 35,000  Level Gander Center
Mon 02:18:03 AM 53.9500 -51.9833 83° East 540 621 35,000  Level Gander Center
Mon 02:19:03 AM 53.9333 -51.7167 96° East 540 621 35,000  Level Gander Center
Mon 02:20:03 AM 53.9333 -51.4667 90° East 530 610 35,000  Level Gander Center
Mon 02:21:03 AM 53.9500 -51.2333 83° East 530 610 35,000  Level Gander Center
Mon 02:22:03 AM 53.9667 -50.9667 84° East 530 610 35,000  Level Gander Center
Mon 02:23:03 AM 53.9667 -50.7167 90° East 530 610 35,000  Level Gander Center
Mon 02:24:03 AM 53.9500 -50.4833 97° East 520 598 35,000  Level Gander Center
Mon 02:25:03 AM 53.9667 -50.2333 83° East 520 598 35,000  Level Gander Center
Mon 02:26:03 AM 53.9833 -50.0000 83° East 520 598 35,000  Level Gander Center
Mon 02:27:03 AM 53.9667 -49.7333 96° East 520 598 35,000 12 Level Gander Center
Mon 02:29:00 AM 54.0329 -49.2855 76° East  Level FlightAware Approximate
Mon 02:36:00 AM 54.2567 -47.6663 76° East  Level FlightAware Approximate
Mon 02:37:00 AM 54.2869 -47.4336 77° East  Level FlightAware Approximate
Mon 02:38:00 AM 54.3166 -47.2006 78° East  Level FlightAware Approximate
Mon 02:39:00 AM 54.3459 -46.9672 78° East  Level FlightAware Approximate
Mon 02:40:00 AM 54.3748 -46.7334 78° East  Level FlightAware Approximate
Mon 02:41:00 AM 54.4032 -46.4994 78° East  Level FlightAware Approximate
Mon 02:42:00 AM 54.4311 -46.2650 78° East  Level FlightAware Approximate
Mon 02:43:00 AM 54.4586 -46.0304 79° East  Level FlightAware Approximate
Mon 02:44:00 AM 54.4856 -45.7954 79° East  Level FlightAware Approximate
Mon 02:45:00 AM 54.5122 -45.5601 79° East  Level FlightAware Approximate
Mon 02:46:00 AM 54.5383 -45.3245 79° East  Level FlightAware Approximate
Mon 02:47:00 AM 54.5640 -45.0886 79° East  Level FlightAware Approximate
Mon 02:48:00 AM 54.5892 -44.8523 79° East  Level FlightAware Approximate
Mon 02:49:00 AM 54.6139 -44.6159 80° East  Level FlightAware Approximate
Mon 02:50:00 AM 54.6382 -44.3791 80° East  Level FlightAware Approximate
Mon 02:51:00 AM 54.6620 -44.1420 80° East  Level FlightAware Approximate
Mon 02:52:00 AM 54.6853 -43.9047 80° East  Level FlightAware Approximate
Mon 02:53:00 AM 54.7082 -43.6671 80° East  Level FlightAware Approximate
Mon 02:54:00 AM 54.7307 -43.4292 81° East  Level FlightAware Approximate
Mon 02:55:00 AM 54.7526 -43.1911 81° East  Level FlightAware Approximate
Mon 02:56:00 AM 54.7741 -42.9527 81° East  Level FlightAware Approximate
Mon 02:57:00 AM 54.7951 -42.7141 81° East  Level FlightAware Approximate
Mon 02:58:00 AM 54.8157 -42.4752 81° East  Level FlightAware Approximate
Mon 02:59:00 AM 54.8358 -42.2361 82° East  Level FlightAware Approximate
Mon 03:00:00 AM 54.8554 -41.9967 82° East  Level FlightAware Approximate
Mon 03:01:00 AM 54.8745 -41.7572 82° East  Level FlightAware Approximate
Mon 03:02:00 AM 54.8932 -41.5174 82° East  Level FlightAware Approximate
Mon 03:03:00 AM 54.9114 -41.2773 82° East  Level FlightAware Approximate
Mon 03:04:00 AM 54.9291 -41.0371 83° East  Level FlightAware Approximate
Mon 03:05:00 AM 54.9463 -40.7966 83° East  Level FlightAware Approximate
Mon 03:06:00 AM 54.9631 -40.5560 83° East  Level FlightAware Approximate
Mon 03:07:00 AM 54.9794 -40.3151 83° East  Level FlightAware Approximate
Mon 03:08:00 AM 54.9952 -40.0741 83° East  Level FlightAware Approximate
Mon 03:09:00 AM 55.0068 -39.8321 86° East  Level FlightAware Approximate
Mon 03:10:00 AM 55.0162 -39.5899 86° East  Level FlightAware Approximate
Mon 03:11:00 AM 55.0251 -39.3476 86° East  Level FlightAware Approximate
Mon 03:12:00 AM 55.0335 -39.1052 86° East  Level FlightAware Approximate
Mon 03:13:00 AM 55.0414 -38.8626 87° East  Level FlightAware Approximate
Mon 03:14:00 AM 55.0489 -38.6200 87° East  Level FlightAware Approximate
Mon 03:15:00 AM 55.0558 -38.3773 87° East  Level FlightAware Approximate
Mon 03:16:00 AM 55.0623 -38.1345 87° East  Level FlightAware Approximate
Mon 03:17:00 AM 55.0683 -37.8916 87° East  Level FlightAware Approximate
Mon 03:18:00 AM 55.0738 -37.6487 88° East  Level FlightAware Approximate
Mon 03:19:00 AM 55.0788 -37.4057 88° East  Level FlightAware Approximate
Mon 03:20:00 AM 55.0834 -37.1626 88° East  Level FlightAware Approximate
Mon 03:21:00 AM 55.0875 -36.9195 88° East  Level FlightAware Approximate
Mon 03:22:00 AM 55.0910 -36.6764 88° East  Level FlightAware Approximate
Mon 03:23:00 AM 55.0942 -36.4332 89° East  Level FlightAware Approximate
Mon 03:24:00 AM 55.0968 -36.1899 89° East  Level FlightAware Approximate
Mon 03:25:00 AM 55.0989 -35.9467 89° East  Level FlightAware Approximate
Mon 03:26:00 AM 55.1005 -35.7034 89° East  Level FlightAware Approximate
Mon 03:27:00 AM 55.1017 -35.4601 89° East  Level FlightAware Approximate
Mon 03:28:00 AM 55.1024 -35.2168 90° East  Level FlightAware Approximate
Mon 03:29:00 AM 55.1026 -34.9735 90° East  Level FlightAware Approximate
Mon 03:30:00 AM 55.1023 -34.7301 90° East  Level FlightAware Approximate
Mon 03:31:00 AM 55.1015 -34.4868 90° East  Level FlightAware Approximate
Mon 03:32:00 AM 55.1002 -34.2435 90° East  Level FlightAware Approximate
Mon 03:33:00 AM 55.0985 -34.0003 91° East  Level FlightAware Approximate
Mon 03:34:00 AM 55.0962 -33.7570 91° East  Level FlightAware Approximate
Mon 03:35:00 AM 55.0935 -33.5138 91° East  Level FlightAware Approximate
Mon 03:36:00 AM 55.0903 -33.2706 91° East  Level FlightAware Approximate
Mon 03:37:00 AM 55.0866 -33.0275 91° East  Level FlightAware Approximate
Mon 03:38:00 AM 55.0825 -32.7844 92° East  Level FlightAware Approximate
Mon 03:39:00 AM 55.0778 -32.5413 92° East  Level FlightAware Approximate
Mon 03:40:00 AM 55.0727 -32.2983 92° East  Level FlightAware Approximate
Mon 03:41:00 AM 55.0670 -32.0554 92° East  Level FlightAware Approximate
Mon 03:42:00 AM 55.0609 -31.8125 92° East  Level FlightAware Approximate
Mon 03:43:00 AM 55.0543 -31.5698 93° East  Level FlightAware Approximate
Mon 03:44:00 AM 55.0473 -31.3271 93° East  Level FlightAware Approximate
Mon 03:45:00 AM 55.0397 -31.0845 93° East  Level FlightAware Approximate
Mon 03:46:00 AM 55.0317 -30.8420 93° East  Level FlightAware Approximate
Mon 03:47:00 AM 55.0232 -30.5996 93° East  Level FlightAware Approximate
Mon 03:48:00 AM 55.0141 -30.3573 94° East  Level FlightAware Approximate
Mon 03:49:00 AM 55.0047 -30.1151 94° East  Level FlightAware Approximate
Mon 03:50:00 AM 55.0051 -29.8730 86° East  Level FlightAware Approximate
Mon 03:51:00 AM 55.0146 -29.6308 86° East  Level FlightAware Approximate
Mon 03:52:00 AM 55.0236 -29.3885 86° East  Level FlightAware Approximate
Mon 03:53:00 AM 55.0321 -29.1461 86° East  Level FlightAware Approximate
Mon 03:54:00 AM 55.0401 -28.9036 87° East  Level FlightAware Approximate
Mon 03:55:00 AM 55.0476 -28.6610 87° East  Level FlightAware Approximate
Mon 03:56:00 AM 55.0547 -28.4183 87° East  Level FlightAware Approximate
Mon 03:57:00 AM 55.0612 -28.1755 87° East  Level FlightAware Approximate
Mon 03:58:00 AM 55.0673 -27.9326 87° East  Level FlightAware Approximate
Mon 03:59:00 AM 55.0729 -27.6897 88° East  Level FlightAware Approximate
Mon 04:00:00 AM 55.0780 -27.4467 88° East  Level FlightAware Approximate
Mon 04:01:00 AM 55.0827 -27.2037 88° East  Level FlightAware Approximate
Mon 04:02:00 AM 55.0868 -26.9606 88° East  Level FlightAware Approximate
Mon 04:03:00 AM 55.0905 -26.7174 88° East  Level FlightAware Approximate
Mon 04:04:00 AM 55.0937 -26.4742 89° East  Level FlightAware Approximate
Mon 04:05:00 AM 55.0964 -26.2310 89° East  Level FlightAware Approximate
Mon 04:06:00 AM 55.0986 -25.9877 89° East  Level FlightAware Approximate
Mon 04:07:00 AM 55.1003 -25.7445 89° East  Level FlightAware Approximate
Mon 04:08:00 AM 55.1015 -25.5012 89° East  Level FlightAware Approximate
Mon 04:09:00 AM 55.1023 -25.2579 90° East  Level FlightAware Approximate
Mon 04:10:00 AM 55.1026 -25.0145 90° East  Level FlightAware Approximate
Mon 04:11:00 AM 55.1024 -24.7712 90° East  Level FlightAware Approximate
Mon 04:12:00 AM 55.1017 -24.5279 90° East  Level FlightAware Approximate
Mon 04:13:00 AM 55.1005 -24.2846 90° East  Level FlightAware Approximate
Mon 04:14:00 AM 55.0988 -24.0413 91° East  Level FlightAware Approximate
Mon 04:15:00 AM 55.0967 -23.7981 91° East  Level FlightAware Approximate
Mon 04:16:00 AM 55.0940 -23.5548 91° East  Level FlightAware Approximate
Mon 04:17:00 AM 55.0909 -23.3116 91° East  Level FlightAware Approximate
Mon 04:18:00 AM 55.0873 -23.0685 91° East  Level FlightAware Approximate
Mon 04:19:00 AM 55.0832 -22.8254 92° East  Level FlightAware Approximate
Mon 04:20:00 AM 55.0786 -22.5823 92° East  Level FlightAware Approximate
Mon 04:21:00 AM 55.0736 -22.3393 92° East  Level FlightAware Approximate
Mon 04:22:00 AM 55.0680 -22.0964 92° East  Level FlightAware Approximate
Mon 04:23:00 AM 55.0620 -21.8535 92° East  Level FlightAware Approximate
Mon 04:24:00 AM 55.0555 -21.6108 93° East  Level FlightAware Approximate
Mon 04:25:00 AM 55.0485 -21.3680 93° East  Level FlightAware Approximate
Mon 04:26:00 AM 55.0410 -21.1254 93° East  Level FlightAware Approximate
Mon 04:27:00 AM 55.0331 -20.8829 93° East  Level FlightAware Approximate
Mon 04:28:00 AM 55.0246 -20.6405 93° East  Level FlightAware Approximate
Mon 04:29:00 AM 55.0157 -20.3982 94° East  Level FlightAware Approximate
Mon 04:30:00 AM 55.0063 -20.1560 94° East  Level FlightAware Approximate
Mon 04:31:00 AM 54.9897 -19.9156 102° East  Level FlightAware Approximate
Mon 04:32:00 AM 54.9603 -19.6785 102° East  Level FlightAware Approximate
Mon 04:33:00 AM 54.9305 -19.4417 102° East  Level FlightAware Approximate
Mon 04:34:00 AM 54.9002 -19.2054 102° East  Level FlightAware Approximate
Mon 04:35:00 AM 54.8694 -18.9694 103° East  Level FlightAware Approximate
Mon 04:36:00 AM 54.8382 -18.7337 103° East  Level FlightAware Approximate
Mon 04:37:00 AM 54.8065 -18.4984 103° East  Level FlightAware Approximate
Mon 04:38:00 AM 54.7744 -18.2635 103° East  Level FlightAware Approximate
Mon 04:39:00 AM 54.7419 -18.0289 103° East  Level FlightAware Approximate
Mon 04:40:00 AM 54.7088 -17.7948 104° East  Level FlightAware Approximate
Mon 04:41:00 AM 54.6754 -17.5610 104° East  Level FlightAware Approximate
Mon 04:42:00 AM 54.6414 -17.3276 104° East  Level FlightAware Approximate
Mon 04:43:00 AM 54.6071 -17.0946 104° East  Level FlightAware Approximate
Mon 04:44:00 AM 54.5723 -16.8620 104° East  Level FlightAware Approximate
Mon 04:45:00 AM 54.5370 -16.6298 105° East  Level FlightAware Approximate
Mon 04:46:00 AM 54.5013 -16.3979 105° East  Level FlightAware Approximate
Mon 04:47:00 AM 54.4651 -16.1665 105° East  Level FlightAware Approximate
Mon 04:48:00 AM 54.4286 -15.9356 105° East  Level FlightAware Approximate
Mon 04:49:00 AM 54.3915 -15.7050 105° East  Level FlightAware Approximate
Mon 04:50:00 AM 54.3541 -15.4748 106° East  Level FlightAware Approximate
Mon 04:51:00 AM 54.3162 -15.2451 106° East  Level FlightAware Approximate
Mon 04:52:00 AM 54.2778 -15.0158 106° East  Level FlightAware Approximate
Mon 04:53:00 AM 54.2391 -14.7869 106° East  Level FlightAware Approximate
Mon 04:54:00 AM 54.1998 -14.5585 106° East  Level FlightAware Approximate
Mon 04:55:00 AM 54.1602 -14.3305 106° East  Level FlightAware Approximate
Mon 04:56:00 AM 54.1201 -14.1029 107° East  Level FlightAware Approximate
Mon 04:56:00 AM 54.7380 -14.0050 107° East 506 582 36,800  Level FlightAware ADS-B
Mon 04:56:40 AM 54.7000 -13.8550 114° Southeast 508 585 37,000 126 Climbing FlightAware ADS-B
Mon 04:57:35 AM 54.6460 -13.6420 114° Southeast 506 582 37,000  Level FlightAware ADS-B
Mon 04:58:20 AM 54.6030 -13.4730 114° Southeast 506 582 37,000  Level FlightAware ADS-B
Mon 04:59:00 AM 54.5660 -13.3290 114° Southeast 509 586 37,000  Level FlightAware ADS-B
Mon 04:59:41 AM 54.5260 -13.1750 114° Southeast 508 585 37,000  Level FlightAware ADS-B
Mon 04:59:55 AM 54.5120 -13.1230 115° Southeast 508 585 37,000  Level FlightAware ADS-B
Mon 05:02:04 AM 54.4000 -12.6990 114° Southeast 508 585 37,000  Level FlightAware ADS-B
Mon 05:02:51 AM 54.3430 -12.4840 114° Southeast 508 585 37,000  Level FlightAware ADS-B
Mon 05:03:30 AM 54.3040 -12.3380 115° Southeast 507 583 37,000  Level FlightAware ADS-B
Mon 05:04:15 AM 54.2580 -12.1710 115° Southeast 506 582 37,000  Level FlightAware ADS-B
Mon 05:05:00 AM 54.2150 -12.0110 115° Southeast 504 580 37,000  Level FlightAware ADS-B
Mon 05:05:35 AM 54.1800 -11.8860 116° Southeast 504 580 37,000  Level FlightAware ADS-B
Mon 05:06:10 AM 54.1460 -11.7610 115° Southeast 500 575 37,000  Level FlightAware ADS-B
Mon 05:06:56 AM 54.1010 -11.6000 115° Southeast 500 575 37,000  Level FlightAware ADS-B
Mon 05:07:35 AM 54.0600 -11.4550 116° Southeast 500 575 37,000  Level FlightAware ADS-B
Mon 05:08:10 AM 54.0250 -11.3290 115° Southeast 500 575 37,000  Level FlightAware ADS-B
Mon 05:08:55 AM 53.9800 -11.1700 116° Southeast 500 575 37,000  Level FlightAware ADS-B
Mon 05:09:35 AM 53.9400 -11.0300 116° Southeast 500 575 37,000  Level FlightAware ADS-B
Mon 05:10:10 AM 53.9040 -10.9040 116° Southeast 500 575 37,000  Level FlightAware ADS-B
Mon 05:10:55 AM 53.8590 -10.7470 116° Southeast 501 577 37,000  Level FlightAware ADS-B
Mon 05:11:35 AM 53.8170 -10.6030 116° Southeast 504 580 37,000  Level FlightAware ADS-B
Mon 05:12:15 AM 53.7760 -10.4630 116° Southeast 505 581 37,000  Level FlightAware ADS-B
Mon 05:13:01 AM 53.7290 -10.3020 116° Southeast 504 580 37,000  Level FlightAware ADS-B
Mon 05:13:40 AM 53.6870 -10.1630 117° Southeast 505 581 37,000  Level FlightAware ADS-B
Mon 05:14:25 AM 53.6410 -10.0070 116° Southeast 504 580 37,000  Level FlightAware ADS-B
Mon 05:15:00 AM 53.6040 -9.8830 117° Southeast 505 581 37,000  Level FlightAware ADS-B
Mon 05:15:40 AM 53.5620 -9.7450 117° Southeast 505 581 37,000  Level FlightAware ADS-B
Mon 05:16:25 AM 53.5140 -9.5850 117° Southeast 507 583 37,000  Level FlightAware ADS-B
Mon 05:17:05 AM 53.4720 -9.4490 117° Southeast 504 580 37,000  Level FlightAware ADS-B
Mon 05:17:47 AM 53.4270 -9.3030 117° Southeast 504 580 37,000  Level FlightAware ADS-B
Mon 05:18:27 AM 53.3830 -9.1600 117° Southeast 503 579 37,000  Level FlightAware ADS-B
Mon 05:19:12 AM 53.3360 -9.0060 117° Southeast 503 579 37,000 -78 Level FlightAware ADS-B
Mon 05:19:44 AM 53.2992 -8.8892 117° Southeast 496 571 36,900  Descending FlightAware UK
Mon 05:19:47 AM 53.2970 -8.8830 117° Southeast 504 580 37,000 140 Climbing FlightAware ADS-B
Mon 05:20:27 AM 53.2540 -8.7460 118° Southeast 504 580 37,000  Level FlightAware ADS-B
Mon 05:21:08 AM 53.2090 -8.6040 118° Southeast 505 581 37,000  Level FlightAware ADS-B
Mon 05:21:43 AM 53.1720 -8.4860 118° Southeast 505 581 37,000  Level FlightAware ADS-B
Mon 05:21:44 AM 53.1679 -8.4733 118° Southeast 496 571 37,000  Level FlightAware UK
Mon 05:22:14 AM 53.1345 -8.3689 118° Southeast 500 575 37,000  Level FlightAware UK
Mon 05:22:27 AM 53.1210 -8.3270 118° Southeast 511 588 37,000  Level FlightAware ADS-B
Mon 05:23:07 AM 53.0780 -8.1930 118° Southeast 511 588 37,000 -78 Level FlightAware ADS-B
Mon 05:23:44 AM 53.0342 -8.0573 118° Southeast 498 573 36,900  Descending FlightAware UK
Mon 05:23:52 AM 53.0280 -8.0370 118° Southeast 512 589 37,000 122 Climbing FlightAware ADS-B
Mon 05:24:33 AM 52.9820 -7.8960 118° Southeast 512 589 37,000  Level FlightAware ADS-B
Mon 05:25:14 AM 52.9329 -7.7463 118° Southeast 498 573 37,000  Level FlightAware UK
Mon 05:25:17 AM 52.9320 -7.7440 118° Southeast 513 590 37,000  Level FlightAware ADS-B
Mon 05:25:58 AM 52.8840 -7.5990 119° Southeast 511 588 37,000  Level FlightAware ADS-B
Mon 05:26:37 AM 52.8410 -7.4670 118° Southeast 511 588 37,000  Level FlightAware ADS-B
Mon 05:27:14 AM 52.7968 -7.3353 118° Southeast 498 573 37,000  Level FlightAware UK
Mon 05:27:15 AM 52.7960 -7.3340 118° Southeast 511 588 37,000  Level FlightAware ADS-B
Mon 05:28:00 AM 52.7460 -7.1840 119° Southeast 511 588 37,000  Level FlightAware ADS-B
Mon 05:28:36 AM 52.7050 -7.0630 119° Southeast 511 588 37,000  Level FlightAware ADS-B
Mon 05:29:14 AM 52.6620 -6.9340 119° Southeast 511 588 37,000  Level FlightAware ADS-B
Mon 05:29:15 AM 52.6595 -6.9268 119° Southeast 498 573 37,000  Level FlightAware UK
Mon 05:29:56 AM 52.6130 -6.7900 119° Southeast 511 588 37,000  Level FlightAware ADS-B
Mon 05:29:57 AM 52.6112 -6.7846 119° Southeast 498 573 37,000  Level FlightAware UK
Mon 05:30:27 AM 52.5765 -6.6832 119° Southeast 498 573 37,000  Level FlightAware UK
Mon 05:30:36 AM 52.5670 -6.6560 119° Southeast 510 587 37,000  Level FlightAware ADS-B
Mon 05:31:18 AM 52.5180 -6.5130 119° Southeast 510 587 37,000  Level FlightAware ADS-B
Mon 05:32:04 AM 52.4650 -6.3610 120° Southeast 510 587 37,000  Level FlightAware ADS-B
Mon 05:32:42 AM 52.4220 -6.2360 119° Southeast 509 586 37,000  Level FlightAware ADS-B
Mon 05:33:29 AM 52.3650 -6.0730 120° Southeast 509 586 37,000  Level FlightAware ADS-B
Mon 05:34:09 AM 52.3178 -5.9398 120° Southeast 500 575 37,000  Level FlightAware UK
Mon 05:34:09 AM 52.3190 -5.9420 120° Southeast 508 585 37,000  Level FlightAware ADS-B
Mon 05:34:49 AM 52.2720 -5.8100 120° Southeast 508 585 37,000  Level FlightAware ADS-B
Mon 05:35:21 AM 52.2333 -5.7015 120° Southeast 496 571 37,000  Level FlightAware UK
Mon 05:35:32 AM 52.2210 -5.6670 120° Southeast 507 583 37,000  Level FlightAware ADS-B
Mon 05:36:13 AM 52.1730 -5.5310 120° Southeast 508 585 37,000  Level FlightAware ADS-B
Mon 05:36:57 AM 52.1200 -5.3850 121° Southeast 507 583 37,000  Level FlightAware ADS-B
Mon 05:37:37 AM 52.0720 -5.2540 121° Southeast 506 582 37,000  Level FlightAware ADS-B
Mon 05:38:21 AM 52.0210 -5.1120 120° Southeast 506 582 37,000  Level FlightAware ADS-B
Mon 05:39:02 AM 51.9870 -4.9670 120° Southeast 511 588 37,000  Level FlightAware ADS-B
Mon 05:39:03 AM 51.9862 -4.9619 120° Southeast 494 568 37,000  Level FlightAware UK
Mon 05:39:33 AM 51.9726 -4.8478 120° Southeast 500 575 37,000  Level FlightAware UK
Mon 05:39:42 AM 51.9690 -4.8180 120° Southeast 514 592 37,000  Level FlightAware ADS-B
Mon 05:40:24 AM 51.9510 -4.6640 101° East 514 592 37,000  Level FlightAware ADS-B
Mon 05:41:11 AM 51.9290 -4.4800 101° East 514 592 37,000  Level FlightAware ADS-B
Mon 05:41:51 AM 51.9110 -4.3280 101° East 513 590 37,000  Level FlightAware ADS-B
Mon 05:42:32 AM 51.8940 -4.1830 101° East 512 589 37,000  Level FlightAware ADS-B
Mon 05:43:16 AM 51.8740 -4.0230 101° East 511 588 37,000  Level FlightAware ADS-B
Mon 05:43:57 AM 51.8540 -3.8620 101° East 512 589 37,000  Level FlightAware ADS-B
Mon 05:44:34 AM 51.8356 -3.7165 102° East 512 589 37,000  Level FlightAware ADS-B
Mon 05:45:07 AM 51.8200 -3.5939 102° East 511 588 37,000  Level FlightAware ADS-B
Mon 05:45:39 AM 51.8049 -3.4751 102° East 513 590 37,000  Level FlightAware ADS-B
Mon 05:46:09 AM 51.7903 -3.3619 102° East 513 590 37,000  Level FlightAware ADS-B
Mon 05:46:41 AM 51.7748 -3.2427 102° East 514 592 37,000  Level FlightAware ADS-B
Mon 05:47:12 AM 51.7597 -3.1272 102° East 513 590 37,000  Level FlightAware ADS-B
Mon 05:47:49 AM 51.7414 -2.9887 102° East 513 590 37,000  Level FlightAware ADS-B
Mon 05:48:23 AM 51.7244 -2.8616 102° East 513 590 37,000  Level FlightAware ADS-B
Mon 05:48:56 AM 51.7079 -2.7392 102° East 513 590 37,000  Level FlightAware ADS-B
Mon 05:49:28 AM 51.6920 -2.6214 102° East 512 589 37,000  Level FlightAware ADS-B
Mon 05:49:58 AM 51.6764 -2.5078 102° East 512 589 37,000  Level FlightAware ADS-B
Mon 05:50:29 AM 51.6609 -2.3950 102° East 512 589 37,000  Level FlightAware ADS-B
Mon 05:51:04 AM 51.6427 -2.2642 103° East 511 588 37,000  Level FlightAware ADS-B
Mon 05:51:35 AM 51.6268 -2.1507 103° East 512 589 37,000  Level FlightAware ADS-B
Mon 05:52:05 AM 51.6110 -2.0391 103° East 511 588 37,000  Level FlightAware ADS-B
Mon 05:52:35 AM 51.5951 -1.9276 103° East 511 588 37,000  Level FlightAware ADS-B
Mon 05:53:07 AM 51.5782 -1.8093 103° East 510 587 37,000  Level FlightAware ADS-B
Mon 05:53:36 AM 51.5634 -1.7033 103° East 510 587 37,000  Level FlightAware ADS-B
Mon 05:54:04 AM 51.5516 -1.5972 100° East 510 587 37,000  Level FlightAware ADS-B
Mon 05:54:35 AM 51.5414 -1.4844 98° East 510 587 37,000  Level FlightAware ADS-B
Mon 05:55:05 AM 51.5312 -1.3701 98° East 509 586 37,000  Level FlightAware ADS-B
Mon 05:55:40 AM 51.5195 -1.2403 98° East 509 586 37,000  Level FlightAware ADS-B
Mon 05:56:10 AM 51.5091 -1.1276 98° East 509 586 37,000  Level FlightAware ADS-B
Mon 05:56:44 AM 51.4975 -1.0044 99° East 508 585 37,000  Level FlightAware ADS-B
Mon 05:57:15 AM 51.4865 -0.8873 99° East 509 586 37,000  Level FlightAware ADS-B
Mon 05:57:46 AM 51.4757 -0.7738 99° East 510 587 37,000  Level FlightAware ADS-B
Mon 05:58:17 AM 51.4645 -0.6576 99° East 510 587 37,000  Level FlightAware ADS-B
Mon 05:58:49 AM 51.4530 -0.5388 99° East 510 587 37,000  Level FlightAware ADS-B
Mon 05:59:19 AM 51.4418 -0.4256 99° East 510 587 37,000  Level FlightAware ADS-B
Mon 05:59:49 AM 51.4307 -0.3136 99° East 510 587 37,000  Level FlightAware ADS-B
Mon 06:00:19 AM 51.4194 -0.2017 99° East 511 588 37,000  Level FlightAware ADS-B
Mon 06:01:00 AM 51.4043 -0.0521 99° East 509 586 37,000  Level FlightAware ADS-B
Mon 06:01:30 AM 51.3926 0.0620 99° East 509 586 37,000  Level FlightAware ADS-B
Mon 06:02:02 AM 51.3806 0.1778 99° East 508 585 37,000  Level FlightAware ADS-B
Mon 06:02:32 AM 51.3688 0.2899 100° East 508 585 37,000  Level FlightAware ADS-B
Mon 06:03:20 AM 51.3499 0.4685 100° East 507 583 37,000  Level FlightAware ADS-B
Mon 06:03:51 AM 51.3378 0.5810 100° East 508 585 37,000  Level FlightAware ADS-B
Mon 06:04:26 AM 51.3237 0.7100 100° East 508 585 37,000  Level FlightAware ADS-B
Mon 06:04:57 AM 51.3114 0.8226 100° East 507 583 37,000  Level FlightAware ADS-B
Mon 06:05:28 AM 51.2988 0.9365 100° East 507 583 37,000  Level FlightAware ADS-B
Mon 06:05:58 AM 51.2862 1.0493 100° East 507 583 37,000  Level FlightAware ADS-B
Mon 06:06:32 AM 51.2722 1.1736 100° East 506 582 37,000  Level FlightAware ADS-B
Mon 06:07:06 AM 51.2564 1.2970 102° East 503 579 37,000  Level FlightAware ADS-B
Mon 06:07:36 AM 51.2398 1.4051 104° East 502 578 37,000  Level FlightAware ADS-B
Mon 06:08:07 AM 51.2230 1.5142 104° East 498 573 37,000  Level FlightAware UK
Mon 06:08:07 AM 51.2230 1.5120 104° East 500 575 37,000  Level FlightAware ADS-B (CYTZ)
Mon 06:08:49 AM 51.1999 1.6646 104° East 494 568 37,000  Level FlightAware UK
Mon 06:08:51 AM 51.2010 1.6600 104° East 497 572 37,000  Level FlightAware ADS-B
Mon 06:09:16 AM 51.1854 1.7617 104° East 501 577 37,000  Level FlightAware ADS-B
Mon 06:09:47 AM 51.1688 1.8726 103° East 497 572 37,000  Level FlightAware ADS-B
Mon 06:10:22 AM 51.1504 1.9941 104° East 498 573 37,000  Level FlightAware ADS-B
Mon 06:10:52 AM 51.1340 2.1012 104° East 497 572 37,000  Level FlightAware ADS-B
Mon 06:11:29 AM 51.1138 2.2324 104° East 496 571 37,000  Level FlightAware ADS-B
Mon 06:12:01 AM 51.0964 2.3461 104° East 496 571 37,000  Level FlightAware UK
Mon 06:12:25 AM 51.0830 2.4301 104° East 494 568 37,000  Level FlightAware ADS-B
Mon 06:13:01 AM 51.0633 2.5549 104° East 493 567 37,000  Level FlightAware ADS-B
Mon 06:13:31 AM 51.0463 2.6622 104° East 492 566 37,000  Level FlightAware UK
Mon 06:13:39 AM 51.0420 2.6870 104° East 492 566 37,000  Level FlightAware ADS-B
Mon 06:14:23 AM 51.0180 2.8380 104° East 491 565 37,000  Level FlightAware ADS-B
Mon 06:14:59 AM 50.9980 2.9650 104° East 490 564 37,000 -150 Level FlightAware ADS-B
Mon 06:15:43 AM 50.9721 3.1214 104° East 492 566 36,800 -609 Descending FlightAware UK
Mon 06:16:08 AM 50.9600 3.1970 104° East 502 578 36,300 -1,800 Descending FlightAware ADS-B
Mon 06:16:43 AM 50.9372 3.3337 104° East 506 582 35,000 -2,049 Descending FlightAware UK
Mon 06:16:49 AM 50.9340 3.3480 104° East 484 557 34,900 -667 Descending FlightAware ADS-B
Mon 06:17:19 AM 50.9079 3.4467 104° East 488 562 34,600 -391 Descending FlightAware UK
Mon 06:17:35 AM 50.8940 3.4830 104° East 423 487 34,600 -2,333 Level FlightAware ADS-B
Mon 06:18:13 AM 50.8560 3.5850 121° Southeast 434 499 32,500 -2,964 Descending FlightAware ADS-B
Mon 06:18:58 AM 50.8100 3.7070 121° Southeast 434 499 30,500 -2,084 Descending FlightAware ADS-B
Mon 06:19:48 AM 50.7610 3.8400 120° Southeast 416 479 29,200 -1,537 Descending FlightAware ADS-B
Mon 06:20:59 AM 50.6930 4.0200 121° Southeast 411 473 27,400 -1,540 Descending FlightAware ADS-B
Mon 06:21:41 AM 50.6490 4.1340 121° Southeast 414 476 26,300 -1,571 Descending FlightAware ADS-B
Mon 06:22:23 AM 50.6110 4.2360 120° Southeast 407 468 25,200 -1,610 Descending FlightAware ADS-B
Mon 06:23:03 AM 50.5690 4.3440 121° Southeast 400 460 24,100 -1,632 Descending FlightAware ADS-B
Mon 06:24:17 AM 50.5000 4.5250 121° Southeast 384 442 22,100 -1,576 Descending FlightAware ADS-B
Mon 06:25:01 AM 50.4600 4.6280 121° Southeast 377 434 21,000 -1,535 Descending FlightAware ADS-B
Mon 06:25:43 AM 50.4220 4.7250 122° Southeast 371 427 19,900 -1,538 Descending FlightAware ADS-B
Mon 06:26:19 AM 50.3910 4.8070 121° Southeast 367 422 19,000 -1,500 Descending FlightAware ADS-B
Mon 06:27:07 AM 50.3480 4.9150 122° Southeast 366 421 17,800 -1,500 Descending FlightAware ADS-B
Mon 06:27:43 AM 50.3170 4.9950 121° Southeast 364 419 16,900 -1,500 Descending FlightAware ADS-B
Mon 06:28:31 AM 50.2740 5.1040 122° Southeast 357 411 15,700 -1,295 Descending FlightAware ADS-B
Mon 06:29:11 AM 50.2410 5.1870 122° Southeast 340 391 15,000 -553 Descending FlightAware ADS-B
Mon 06:29:47 AM 50.2130 5.2600 121° Southeast 310 357 15,000 -1,342 Level FlightAware ADS-B
Mon 06:30:27 AM 50.1820 5.3380 122° Southeast 331 381 13,300 -1,786 Descending FlightAware ADS-B
Mon 06:31:11 AM 50.1470 5.4270 122° Southeast 320 368 12,500 -1,059 Descending FlightAware ADS-B
Mon 06:31:52 AM 50.1160 5.5060 121° Southeast 304 350 11,800 -1,000 Descending FlightAware ADS-B
Mon 06:32:35 AM 50.0870 5.5840 120° Southeast 297 342 11,100 -578 Descending FlightAware ADS-B
Mon 06:33:15 AM 50.0590 5.6580 120° Southeast 292 336 11,000 -77 Descending FlightAware ADS-B
Mon 06:33:53 AM 50.0330 5.7260 121° Southeast 294 338 11,000  Level FlightAware ADS-B
Mon 06:34:33 AM 50.0050 5.7980 121° Southeast 293 337 11,000 -735 Level FlightAware ADS-B
Mon 06:35:31 AM 49.9640 5.9020 121° Southeast 289 333 9,800 -1,214 Descending FlightAware ADS-B
Mon 06:35:57 AM 49.9480 5.9450 120° Southeast 286 329 9,300 -941 Descending FlightAware ADS-B
Mon 06:36:22 AM 49.9310 5.9880 122° Southeast 282 325 9,000 -831 Descending FlightAware ADS-B
Mon 06:37:02 AM 49.9030 6.0580 122° Southeast 282 325 8,400 -923 Descending FlightAware ADS-B
Mon 06:37:27 AM 49.8870 6.0980 122° Southeast 279 321 8,000 -1,200 Descending FlightAware ADS-B
Mon 06:37:52 AM 49.8690 6.1420 122° Southeast 283 326 7,400 -1,525 Descending FlightAware ADS-B
Mon 06:38:26 AM 49.8440 6.2030 122° Southeast 284 327 6,500 -1,418 Descending FlightAware ADS-B
Mon 06:38:47 AM 49.8280 6.2410 123° Southeast 272 313 6,100 -1,059 Descending FlightAware ADS-B
Mon 06:39:17 AM 49.8110 6.2810 123° Southeast 249 287 5,600 -891 Descending FlightAware ADS-B
Mon 06:40:28 AM 49.7690 6.3810 123° Southeast 213 245 4,600 -750 Descending FlightAware ADS-B
Mon 06:40:45 AM 49.7590 6.3940 140° Southeast 206 237 4,500 -585 Descending FlightAware ADS-B
Mon 06:41:09 AM 49.7350 6.4170 148° Southeast 204 235 4,200 -667 Descending FlightAware ADS-B
Mon 06:41:21 AM 49.7250 6.4200 169° South 197 227 4,100 -714 Descending FlightAware ADS-B
Mon 06:41:51 AM 49.7010 6.4040 203° Southwest 182 209 3,700 -857 Descending FlightAware ADS-B
Mon 06:42:10 AM 49.6930 6.3900 229° Southwest 179 206 3,400 -1,105 Descending FlightAware ADS-B
Mon 06:42:29 AM 49.6830 6.3680 235° Southwest 183 211 3,000 -1,263 Descending FlightAware ADS-B
Mon 06:45:00 AM 49.6266 6.2115 241° Southwest  Level Estimated
Mon 06:46:00 AM 49.6266 6.2115 201° Southwest  Level Estimated
Mon 06:47:00 AM 49.6266 6.2115 201° Southwest  Level Estimated
Mon 06:48:00 AM 49.6266 6.2115 201° Southwest  Level Estimated
Mon 06:49:00 AM 49.6266 6.2115 201° Southwest  Level Estimated
Mon 06:50:00 AM 49.6266 6.2115 201° Southwest  Level Estimated
Mon 06:51:00 AM 49.6266 6.2115 201° Southwest  Level Estimated
Mon 06:52:00 AM 49.6266 6.2115 201° Southwest  Level Estimated
Mon 06:53:00 AM 49.6266 6.2115 201° Southwest  Level Estimated
Mon 06:54:00 AM 49.6266 6.2115 201° Southwest  Level Estimated
Mon 06:55:00 AM 49.6266 6.2115 201° Southwest  Level Estimated
Mon 06:56:00 AM 49.6266 6.2115 201° Southwest  Level Estimated
Mon 06:57:00 AM 49.6266 6.2115 201° Southwest  Level Estimated
Mon 06:58:00 AM 49.6266 6.2115 201° Southwest  Level Estimated

Login

Don't have an account? Register now (free) for customized features, flight alerts, and more!